sensor_id;sensor_type;location;lat;lon;timestamp;P1;durP1;ratioP1;P2;durP2;ratioP2
18720;SDS011;9489;50.948;3.114;2023-10-13T00:00:33;9.25;;;4.70;;
18720;SDS011;9489;50.948;3.114;2023-10-13T00:03:02;9.98;;;5.45;;
18720;SDS011;9489;50.948;3.114;2023-10-13T00:05:31;9.95;;;4.85;;
18720;SDS011;9489;50.948;3.114;2023-10-13T00:07:58;10.20;;;5.47;;
18720;SDS011;9489;50.948;3.114;2023-10-13T00:10:35;8.75;;;4.57;;
18720;SDS011;9489;50.948;3.114;2023-10-13T00:13:01;7.07;;;4.93;;
18720;SDS011;9489;50.948;3.114;2023-10-13T00:15:44;8.15;;;5.45;;
18720;SDS011;9489;50.948;3.114;2023-10-13T00:18:23;10.63;;;5.75;;
18720;SDS011;9489;50.948;3.114;2023-10-13T00:20:58;7.97;;;5.18;;
18720;SDS011;9489;50.948;3.114;2023-10-13T00:23:24;7.85;;;5.22;;
18720;SDS011;9489;50.948;3.114;2023-10-13T00:25:52;8.77;;;5.60;;
18720;SDS011;9489;50.948;3.114;2023-10-13T00:28:27;12.32;;;5.70;;
18720;SDS011;9489;50.948;3.114;2023-10-13T00:31:00;10.00;;;5.75;;
18720;SDS011;9489;50.948;3.114;2023-10-13T00:33:36;10.52;;;6.47;;
18720;SDS011;9489;50.948;3.114;2023-10-13T00:36:03;9.15;;;6.50;;
18720;SDS011;9489;50.948;3.114;2023-10-13T00:38:30;10.98;;;6.82;;
18720;SDS011;9489;50.948;3.114;2023-10-13T00:40:56;7.95;;;6.32;;
18720;SDS011;9489;50.948;3.114;2023-10-13T00:43:28;10.82;;;6.38;;
18720;SDS011;9489;50.948;3.114;2023-10-13T00:45:57;11.30;;;6.35;;
18720;SDS011;9489;50.948;3.114;2023-10-13T00:48:31;11.38;;;7.05;;
18720;SDS011;9489;50.948;3.114;2023-10-13T00:50:59;11.15;;;6.88;;
18720;SDS011;9489;50.948;3.114;2023-10-13T00:53:28;9.60;;;6.88;;
18720;SDS011;9489;50.948;3.114;2023-10-13T00:55:58;7.78;;;7.00;;
18720;SDS011;9489;50.948;3.114;2023-10-13T00:58:33;8.88;;;6.95;;
18720;SDS011;9489;50.948;3.114;2023-10-13T01:01:00;8.88;;;7.03;;
18720;SDS011;9489;50.948;3.114;2023-10-13T01:03:43;9.73;;;7.40;;
18720;SDS011;9489;50.948;3.114;2023-10-13T01:06:10;11.80;;;7.15;;
18720;SDS011;9489;50.948;3.114;2023-10-13T01:08:37;10.73;;;7.18;;
18720;SDS011;9489;50.948;3.114;2023-10-13T01:11:03;10.93;;;7.07;;
18720;SDS011;9489;50.948;3.114;2023-10-13T01:13:33;10.07;;;7.05;;
18720;SDS011;9489;50.948;3.114;2023-10-13T01:16:01;11.02;;;6.82;;
18720;SDS011;9489;50.948;3.114;2023-10-13T01:18:32;11.35;;;7.32;;
18720;SDS011;9489;50.948;3.114;2023-10-13T01:21:05;10.00;;;7.18;;
18720;SDS011;9489;50.948;3.114;2023-10-13T01:23:31;9.43;;;6.53;;
18720;SDS011;9489;50.948;3.114;2023-10-13T01:26:03;8.93;;;7.15;;
18720;SDS011;9489;50.948;3.114;2023-10-13T01:28:30;9.35;;;7.10;;
18720;SDS011;9489;50.948;3.114;2023-10-13T01:31:09;8.18;;;7.38;;
18720;SDS011;9489;50.948;3.114;2023-10-13T01:33:42;10.23;;;7.38;;
18720;SDS011;9489;50.948;3.114;2023-10-13T01:36:08;12.27;;;7.13;;
18720;SDS011;9489;50.948;3.114;2023-10-13T01:38:33;8.27;;;6.32;;
18720;SDS011;9489;50.948;3.114;2023-10-13T01:41:03;9.52;;;6.00;;
18720;SDS011;9489;50.948;3.114;2023-10-13T01:43:30;10.05;;;6.80;;
18720;SDS011;9489;50.948;3.114;2023-10-13T01:45:56;8.18;;;6.65;;
18720;SDS011;9489;50.948;3.114;2023-10-13T01:48:21;8.60;;;6.60;;
18720;SDS011;9489;50.948;3.114;2023-10-13T01:50:47;13.57;;;8.13;;
18720;SDS011;9489;50.948;3.114;2023-10-13T01:53:17;11.15;;;7.50;;
18720;SDS011;9489;50.948;3.114;2023-10-13T01:55:43;12.40;;;7.32;;
18720;SDS011;9489;50.948;3.114;2023-10-13T01:58:12;14.88;;;9.18;;
18720;SDS011;9489;50.948;3.114;2023-10-13T02:00:45;10.02;;;8.25;;
18720;SDS011;9489;50.948;3.114;2023-10-13T02:03:14;13.15;;;9.80;;
18720;SDS011;9489;50.948;3.114;2023-10-13T02:05:43;11.82;;;10.15;;
18720;SDS011;9489;50.948;3.114;2023-10-13T02:08:13;16.90;;;11.65;;
18720;SDS011;9489;50.948;3.114;2023-10-13T02:10:52;16.15;;;11.43;;
18720;SDS011;9489;50.948;3.114;2023-10-13T02:13:20;17.05;;;13.98;;
18720;SDS011;9489;50.948;3.114;2023-10-13T02:15:48;21.90;;;16.23;;
18720;SDS011;9489;50.948;3.114;2023-10-13T02:18:18;19.85;;;17.92;;
18720;SDS011;9489;50.948;3.114;2023-10-13T02:21:03;23.95;;;20.90;;
18720;SDS011;9489;50.948;3.114;2023-10-13T02:23:30;24.58;;;22.00;;
18720;SDS011;9489;50.948;3.114;2023-10-13T02:25:56;22.77;;;20.58;;
18720;SDS011;9489;50.948;3.114;2023-10-13T02:28:35;23.92;;;21.42;;
18720;SDS011;9489;50.948;3.114;2023-10-13T02:31:02;25.58;;;21.52;;
18720;SDS011;9489;50.948;3.114;2023-10-13T02:33:29;23.75;;;21.30;;
18720;SDS011;9489;50.948;3.114;2023-10-13T02:35:58;25.88;;;21.58;;
18720;SDS011;9489;50.948;3.114;2023-10-13T02:38:29;23.25;;;20.40;;
18720;SDS011;9489;50.948;3.114;2023-10-13T02:41:04;25.88;;;22.05;;
18720;SDS011;9489;50.948;3.114;2023-10-13T02:43:45;24.35;;;21.73;;
18720;SDS011;9489;50.948;3.114;2023-10-13T02:46:10;24.13;;;20.95;;
18720;SDS011;9489;50.948;3.114;2023-10-13T02:48:36;23.55;;;20.35;;
18720;SDS011;9489;50.948;3.114;2023-10-13T02:51:11;23.55;;;21.10;;
18720;SDS011;9489;50.948;3.114;2023-10-13T02:53:41;22.40;;;19.60;;
18720;SDS011;9489;50.948;3.114;2023-10-13T02:56:07;22.58;;;20.35;;
18720;SDS011;9489;50.948;3.114;2023-10-13T02:58:33;23.13;;;20.50;;
18720;SDS011;9489;50.948;3.114;2023-10-13T03:01:09;22.90;;;20.48;;
18720;SDS011;9489;50.948;3.114;2023-10-13T03:03:44;22.27;;;19.98;;
18720;SDS011;9489;50.948;3.114;2023-10-13T03:06:17;24.92;;;20.25;;
18720;SDS011;9489;50.948;3.114;2023-10-13T03:09:07;22.33;;;20.05;;
18720;SDS011;9489;50.948;3.114;2023-10-13T03:11:42;20.70;;;18.48;;
18720;SDS011;9489;50.948;3.114;2023-10-13T03:14:14;18.88;;;17.08;;
18720;SDS011;9489;50.948;3.114;2023-10-13T03:16:52;21.58;;;17.42;;
18720;SDS011;9489;50.948;3.114;2023-10-13T03:19:27;20.77;;;17.70;;
18720;SDS011;9489;50.948;3.114;2023-10-13T03:21:58;20.80;;;18.55;;
18720;SDS011;9489;50.948;3.114;2023-10-13T03:24:34;19.08;;;17.08;;
18720;SDS011;9489;50.948;3.114;2023-10-13T03:27:01;17.58;;;15.73;;
18720;SDS011;9489;50.948;3.114;2023-10-13T03:29:43;18.65;;;16.65;;
18720;SDS011;9489;50.948;3.114;2023-10-13T03:32:10;18.48;;;15.55;;
18720;SDS011;9489;50.948;3.114;2023-10-13T03:34:37;18.25;;;15.60;;
18720;SDS011;9489;50.948;3.114;2023-10-13T03:37:06;17.60;;;15.70;;
18720;SDS011;9489;50.948;3.114;2023-10-13T03:39:43;17.10;;;15.40;;
18720;SDS011;9489;50.948;3.114;2023-10-13T03:42:10;17.98;;;15.32;;
18720;SDS011;9489;50.948;3.114;2023-10-13T03:44:44;18.63;;;16.73;;
18720;SDS011;9489;50.948;3.114;2023-10-13T03:47:11;17.65;;;15.93;;
18720;SDS011;9489;50.948;3.114;2023-10-13T03:49:44;18.63;;;16.50;;
18720;SDS011;9489;50.948;3.114;2023-10-13T03:52:11;19.88;;;16.83;;
18720;SDS011;9489;50.948;3.114;2023-10-13T03:54:39;17.73;;;15.93;;
18720;SDS011;9489;50.948;3.114;2023-10-13T03:57:06;18.23;;;15.50;;
18720;SDS011;9489;50.948;3.114;2023-10-13T03:59:37;18.58;;;15.50;;
18720;SDS011;9489;50.948;3.114;2023-10-13T04:02:03;18.27;;;15.75;;
18720;SDS011;9489;50.948;3.114;2023-10-13T04:04:37;20.88;;;15.63;;
18720;SDS011;9489;50.948;3.114;2023-10-13T04:07:18;19.35;;;14.60;;
18720;SDS011;9489;50.948;3.114;2023-10-13T04:10:03;18.00;;;14.40;;
18720;SDS011;9489;50.948;3.114;2023-10-13T04:12:47;20.80;;;14.65;;
18720;SDS011;9489;50.948;3.114;2023-10-13T04:15:31;17.02;;;14.18;;
18720;SDS011;9489;50.948;3.114;2023-10-13T04:18:06;16.40;;;13.80;;
18720;SDS011;9489;50.948;3.114;2023-10-13T04:20:43;19.15;;;13.98;;
18720;SDS011;9489;50.948;3.114;2023-10-13T04:23:11;17.75;;;13.38;;
18720;SDS011;9489;50.948;3.114;2023-10-13T04:25:43;15.48;;;13.30;;
18720;SDS011;9489;50.948;3.114;2023-10-13T04:28:13;19.33;;;13.38;;
18720;SDS011;9489;50.948;3.114;2023-10-13T04:30:42;18.30;;;12.48;;
18720;SDS011;9489;50.948;3.114;2023-10-13T04:33:22;16.73;;;13.10;;
18720;SDS011;9489;50.948;3.114;2023-10-13T04:36:06;18.05;;;12.73;;
18720;SDS011;9489;50.948;3.114;2023-10-13T04:38:46;17.13;;;12.70;;
18720;SDS011;9489;50.948;3.114;2023-10-13T04:41:26;12.93;;;11.52;;
18720;SDS011;9489;50.948;3.114;2023-10-13T04:44:22;15.30;;;11.52;;
18720;SDS011;9489;50.948;3.114;2023-10-13T04:46:54;14.65;;;12.13;;
18720;SDS011;9489;50.948;3.114;2023-10-13T04:49:24;17.20;;;12.32;;
18720;SDS011;9489;50.948;3.114;2023-10-13T04:52:01;15.93;;;12.45;;
18720;SDS011;9489;50.948;3.114;2023-10-13T04:54:33;18.00;;;12.40;;
18720;SDS011;9489;50.948;3.114;2023-10-13T04:57:24;20.10;;;13.85;;
18720;SDS011;9489;50.948;3.114;2023-10-13T05:00:08;15.00;;;12.32;;
18720;SDS011;9489;50.948;3.114;2023-10-13T05:02:57;15.07;;;11.88;;
18720;SDS011;9489;50.948;3.114;2023-10-13T05:05:25;16.35;;;12.18;;
18720;SDS011;9489;50.948;3.114;2023-10-13T05:08:00;17.70;;;12.07;;
18720;SDS011;9489;50.948;3.114;2023-10-13T05:10:45;17.35;;;12.65;;
18720;SDS011;9489;50.948;3.114;2023-10-13T05:13:31;18.58;;;12.68;;
18720;SDS011;9489;50.948;3.114;2023-10-13T05:16:15;15.77;;;12.82;;
18720;SDS011;9489;50.948;3.114;2023-10-13T05:18:59;18.25;;;12.38;;
18720;SDS011;9489;50.948;3.114;2023-10-13T05:21:43;16.40;;;11.35;;
18720;SDS011;9489;50.948;3.114;2023-10-13T05:24:28;14.38;;;11.60;;
18720;SDS011;9489;50.948;3.114;2023-10-13T05:27:13;18.40;;;12.02;;
18720;SDS011;9489;50.948;3.114;2023-10-13T05:29:57;19.27;;;11.82;;
18720;SDS011;9489;50.948;3.114;2023-10-13T05:32:41;17.13;;;11.20;;
18720;SDS011;9489;50.948;3.114;2023-10-13T05:35:25;14.85;;;11.52;;
18720;SDS011;9489;50.948;3.114;2023-10-13T05:38:09;17.52;;;11.85;;
18720;SDS011;9489;50.948;3.114;2023-10-13T05:43:45;21.95;;;11.27;;
18720;SDS011;9489;50.948;3.114;2023-10-13T05:46:30;18.83;;;11.65;;
18720;SDS011;9489;50.948;3.114;2023-10-13T05:49:03;19.25;;;12.73;;
18720;SDS011;9489;50.948;3.114;2023-10-13T05:51:42;16.40;;;10.80;;
18720;SDS011;9489;50.948;3.114;2023-10-13T05:54:18;14.77;;;11.27;;
18720;SDS011;9489;50.948;3.114;2023-10-13T05:59:35;17.73;;;10.80;;
18720;SDS011;9489;50.948;3.114;2023-10-13T06:02:21;19.35;;;10.45;;
18720;SDS011;9489;50.948;3.114;2023-10-13T06:05:06;18.00;;;10.15;;
18720;SDS011;9489;50.948;3.114;2023-10-13T06:07:52;15.55;;;9.85;;
18720;SDS011;9489;50.948;3.114;2023-10-13T06:10:37;15.65;;;9.52;;
18720;SDS011;9489;50.948;3.114;2023-10-13T06:13:22;11.63;;;8.88;;
18720;SDS011;9489;50.948;3.114;2023-10-13T06:16:10;15.50;;;9.35;;
18720;SDS011;9489;50.948;3.114;2023-10-13T06:18:59;16.45;;;8.98;;
18720;SDS011;9489;50.948;3.114;2023-10-13T06:21:43;14.18;;;8.75;;
18720;SDS011;9489;50.948;3.114;2023-10-13T06:24:28;14.95;;;8.73;;
18720;SDS011;9489;50.948;3.114;2023-10-13T06:27:14;15.70;;;8.68;;
18720;SDS011;9489;50.948;3.114;2023-10-13T06:29:59;16.13;;;8.80;;
18720;SDS011;9489;50.948;3.114;2023-10-13T06:32:26;9.88;;;7.97;;
18720;SDS011;9489;50.948;3.114;2023-10-13T06:34:55;15.95;;;7.68;;
18720;SDS011;9489;50.948;3.114;2023-10-13T06:37:30;12.48;;;7.72;;
18720;SDS011;9489;50.948;3.114;2023-10-13T06:39:58;15.90;;;8.02;;
18720;SDS011;9489;50.948;3.114;2023-10-13T06:42:31;15.30;;;8.43;;
18720;SDS011;9489;50.948;3.114;2023-10-13T06:44:59;13.63;;;7.95;;
18720;SDS011;9489;50.948;3.114;2023-10-13T06:47:28;13.57;;;7.55;;
18720;SDS011;9489;50.948;3.114;2023-10-13T06:49:54;10.98;;;7.47;;
18720;SDS011;9489;50.948;3.114;2023-10-13T06:52:21;10.93;;;7.90;;
18720;SDS011;9489;50.948;3.114;2023-10-13T06:54:50;14.52;;;6.90;;
18720;SDS011;9489;50.948;3.114;2023-10-13T06:57:18;13.35;;;7.53;;
18720;SDS011;9489;50.948;3.114;2023-10-13T06:59:47;10.40;;;7.28;;
18720;SDS011;9489;50.948;3.114;2023-10-13T07:02:13;12.38;;;6.43;;
18720;SDS011;9489;50.948;3.114;2023-10-13T07:04:48;8.93;;;7.05;;
18720;SDS011;9489;50.948;3.114;2023-10-13T07:07:22;16.60;;;7.13;;
18720;SDS011;9489;50.948;3.114;2023-10-13T07:09:48;13.98;;;7.55;;
18720;SDS011;9489;50.948;3.114;2023-10-13T07:12:20;13.38;;;7.10;;
18720;SDS011;9489;50.948;3.114;2023-10-13T07:14:52;11.35;;;7.75;;
18720;SDS011;9489;50.948;3.114;2023-10-13T07:17:39;9.55;;;6.78;;
18720;SDS011;9489;50.948;3.114;2023-10-13T07:20:06;13.43;;;7.53;;
18720;SDS011;9489;50.948;3.114;2023-10-13T07:22:48;12.60;;;8.27;;
18720;SDS011;9489;50.948;3.114;2023-10-13T07:25:22;14.60;;;6.60;;
18720;SDS011;9489;50.948;3.114;2023-10-13T07:27:51;10.73;;;7.10;;
18720;SDS011;9489;50.948;3.114;2023-10-13T07:30:19;13.63;;;7.15;;
18720;SDS011;9489;50.948;3.114;2023-10-13T07:32:45;10.07;;;7.15;;
18720;SDS011;9489;50.948;3.114;2023-10-13T07:35:14;10.85;;;6.72;;
18720;SDS011;9489;50.948;3.114;2023-10-13T07:37:43;14.38;;;7.30;;
18720;SDS011;9489;50.948;3.114;2023-10-13T07:40:10;15.07;;;7.57;;
18720;SDS011;9489;50.948;3.114;2023-10-13T07:42:51;12.40;;;6.57;;
18720;SDS011;9489;50.948;3.114;2023-10-13T07:45:17;15.68;;;6.97;;
18720;SDS011;9489;50.948;3.114;2023-10-13T07:47:49;11.27;;;6.97;;
18720;SDS011;9489;50.948;3.114;2023-10-13T07:50:15;14.95;;;7.75;;
18720;SDS011;9489;50.948;3.114;2023-10-13T07:52:50;14.55;;;8.00;;
18720;SDS011;9489;50.948;3.114;2023-10-13T07:55:32;14.07;;;7.03;;
18720;SDS011;9489;50.948;3.114;2023-10-13T07:57:58;12.45;;;6.88;;
18720;SDS011;9489;50.948;3.114;2023-10-13T08:00:32;14.18;;;6.90;;
18720;SDS011;9489;50.948;3.114;2023-10-13T08:03:10;12.02;;;6.15;;
18720;SDS011;9489;50.948;3.114;2023-10-13T08:06:02;16.45;;;7.93;;
18720;SDS011;9489;50.948;3.114;2023-10-13T08:08:28;12.45;;;6.95;;
18720;SDS011;9489;50.948;3.114;2023-10-13T08:11:07;14.05;;;7.13;;
18720;SDS011;9489;50.948;3.114;2023-10-13T08:13:57;12.73;;;6.85;;
18720;SDS011;9489;50.948;3.114;2023-10-13T08:16:44;12.93;;;7.35;;
18720;SDS011;9489;50.948;3.114;2023-10-13T08:19:20;13.95;;;6.93;;
18720;SDS011;9489;50.948;3.114;2023-10-13T08:21:53;12.88;;;7.47;;
18720;SDS011;9489;50.948;3.114;2023-10-13T08:24:47;12.85;;;7.20;;
18720;SDS011;9489;50.948;3.114;2023-10-13T08:27:14;11.00;;;7.05;;
18720;SDS011;9489;50.948;3.114;2023-10-13T08:29:58;14.18;;;8.07;;
18720;SDS011;9489;50.948;3.114;2023-10-13T08:32:25;12.68;;;7.90;;
18720;SDS011;9489;50.948;3.114;2023-10-13T08:34:52;12.57;;;7.55;;
18720;SDS011;9489;50.948;3.114;2023-10-13T08:37:22;13.02;;;7.75;;
18720;SDS011;9489;50.948;3.114;2023-10-13T08:39:57;11.00;;;7.30;;
18720;SDS011;9489;50.948;3.114;2023-10-13T08:42:36;14.07;;;7.40;;
18720;SDS011;9489;50.948;3.114;2023-10-13T08:47:51;10.98;;;7.18;;
18720;SDS011;9489;50.948;3.114;2023-10-13T08:50:40;12.27;;;7.10;;
18720;SDS011;9489;50.948;3.114;2023-10-13T08:53:20;12.60;;;7.20;;
18720;SDS011;9489;50.948;3.114;2023-10-13T08:55:59;11.48;;;7.90;;
18720;SDS011;9489;50.948;3.114;2023-10-13T08:58:38;12.75;;;7.80;;
18720;SDS011;9489;50.948;3.114;2023-10-13T09:01:28;15.65;;;8.50;;
18720;SDS011;9489;50.948;3.114;2023-10-13T09:04:15;13.45;;;7.60;;
18720;SDS011;9489;50.948;3.114;2023-10-13T09:06:49;11.50;;;8.63;;
18720;SDS011;9489;50.948;3.114;2023-10-13T09:09:27;12.30;;;8.73;;
18720;SDS011;9489;50.948;3.114;2023-10-13T09:12:22;15.25;;;8.65;;
18720;SDS011;9489;50.948;3.114;2023-10-13T09:15:08;14.00;;;7.90;;
18720;SDS011;9489;50.948;3.114;2023-10-13T09:17:44;12.82;;;8.90;;
18720;SDS011;9489;50.948;3.114;2023-10-13T09:20:17;14.93;;;7.93;;
18720;SDS011;9489;50.948;3.114;2023-10-13T09:23:12;12.43;;;8.20;;
18720;SDS011;9489;50.948;3.114;2023-10-13T09:25:50;18.23;;;8.20;;
18720;SDS011;9489;50.948;3.114;2023-10-13T09:28:23;13.07;;;8.10;;
18720;SDS011;9489;50.948;3.114;2023-10-13T09:30:54;15.27;;;8.07;;
18720;SDS011;9489;50.948;3.114;2023-10-13T09:36:15;12.45;;;7.50;;
18720;SDS011;9489;50.948;3.114;2023-10-13T09:38:42;15.55;;;8.52;;
18720;SDS011;9489;50.948;3.114;2023-10-13T09:41:36;16.88;;;8.38;;
18720;SDS011;9489;50.948;3.114;2023-10-13T09:44:02;12.57;;;7.97;;
18720;SDS011;9489;50.948;3.114;2023-10-13T09:46:28;11.93;;;7.85;;
18720;SDS011;9489;50.948;3.114;2023-10-13T09:48:58;10.40;;;7.82;;
18720;SDS011;9489;50.948;3.114;2023-10-13T09:51:33;13.00;;;7.82;;
18720;SDS011;9489;50.948;3.114;2023-10-13T09:54:18;14.27;;;7.60;;
18720;SDS011;9489;50.948;3.114;2023-10-13T09:56:53;14.52;;;7.90;;
18720;SDS011;9489;50.948;3.114;2023-10-13T09:59:36;15.35;;;8.38;;
18720;SDS011;9489;50.948;3.114;2023-10-13T10:02:17;19.00;;;8.75;;
18720;SDS011;9489;50.948;3.114;2023-10-13T10:04:53;13.00;;;7.80;;
18720;SDS011;9489;50.948;3.114;2023-10-13T10:07:36;15.68;;;7.88;;
18720;SDS011;9489;50.948;3.114;2023-10-13T10:10:04;13.13;;;8.00;;
18720;SDS011;9489;50.948;3.114;2023-10-13T10:15:29;11.55;;;7.63;;
18720;SDS011;9489;50.948;3.114;2023-10-13T10:18:27;14.50;;;8.25;;
18720;SDS011;9489;50.948;3.114;2023-10-13T10:21:02;16.23;;;9.00;;
18720;SDS011;9489;50.948;3.114;2023-10-13T10:23:35;14.00;;;8.65;;
18720;SDS011;9489;50.948;3.114;2023-10-13T10:26:14;14.23;;;7.72;;
18720;SDS011;9489;50.948;3.114;2023-10-13T10:28:45;14.18;;;8.48;;
18720;SDS011;9489;50.948;3.114;2023-10-13T10:31:12;16.05;;;8.07;;
18720;SDS011;9489;50.948;3.114;2023-10-13T10:33:40;12.35;;;8.77;;
18720;SDS011;9489;50.948;3.114;2023-10-13T10:36:06;12.48;;;8.10;;
18720;SDS011;9489;50.948;3.114;2023-10-13T10:38:51;12.57;;;8.45;;
18720;SDS011;9489;50.948;3.114;2023-10-13T10:41:24;11.95;;;8.23;;
18720;SDS011;9489;50.948;3.114;2023-10-13T10:43:55;15.52;;;9.02;;
18720;SDS011;9489;50.948;3.114;2023-10-13T10:46:27;11.82;;;7.88;;
18720;SDS011;9489;50.948;3.114;2023-10-13T10:48:56;15.32;;;8.65;;
18720;SDS011;9489;50.948;3.114;2023-10-13T10:51:26;13.65;;;8.55;;
18720;SDS011;9489;50.948;3.114;2023-10-13T10:53:59;15.50;;;9.05;;
18720;SDS011;9489;50.948;3.114;2023-10-13T10:56:46;14.50;;;9.32;;
18720;SDS011;9489;50.948;3.114;2023-10-13T10:59:18;16.27;;;8.82;;
18720;SDS011;9489;50.948;3.114;2023-10-13T11:01:45;11.85;;;8.85;;
18720;SDS011;9489;50.948;3.114;2023-10-13T11:04:17;15.82;;;8.35;;
18720;SDS011;9489;50.948;3.114;2023-10-13T11:06:53;16.10;;;8.70;;
18720;SDS011;9489;50.948;3.114;2023-10-13T11:09:27;16.48;;;8.52;;
18720;SDS011;9489;50.948;3.114;2023-10-13T11:11:57;13.77;;;8.05;;
18720;SDS011;9489;50.948;3.114;2023-10-13T11:17:38;15.82;;;9.35;;
18720;SDS011;9489;50.948;3.114;2023-10-13T11:20:12;13.15;;;8.13;;
18720;SDS011;9489;50.948;3.114;2023-10-13T11:22:48;12.50;;;9.35;;
18720;SDS011;9489;50.948;3.114;2023-10-13T11:25:33;16.98;;;9.38;;
18720;SDS011;9489;50.948;3.114;2023-10-13T11:28:12;15.35;;;9.80;;
18720;SDS011;9489;50.948;3.114;2023-10-13T11:31:05;14.77;;;8.13;;
18720;SDS011;9489;50.948;3.114;2023-10-13T11:33:44;15.43;;;8.27;;
18720;SDS011;9489;50.948;3.114;2023-10-13T11:36:12;11.20;;;7.80;;
18720;SDS011;9489;50.948;3.114;2023-10-13T11:38:50;14.63;;;7.85;;
18720;SDS011;9489;50.948;3.114;2023-10-13T11:41:23;13.82;;;7.47;;
18720;SDS011;9489;50.948;3.114;2023-10-13T11:43:49;12.55;;;7.75;;
18720;SDS011;9489;50.948;3.114;2023-10-13T11:46:16;11.93;;;7.75;;
18720;SDS011;9489;50.948;3.114;2023-10-13T11:49:02;12.18;;;7.22;;
18720;SDS011;9489;50.948;3.114;2023-10-13T11:51:49;11.68;;;7.25;;
18720;SDS011;9489;50.948;3.114;2023-10-13T11:54:16;9.85;;;6.43;;
18720;SDS011;9489;50.948;3.114;2023-10-13T11:56:43;15.77;;;7.50;;
18720;SDS011;9489;50.948;3.114;2023-10-13T11:59:12;15.25;;;6.97;;
18720;SDS011;9489;50.948;3.114;2023-10-13T12:01:45;10.20;;;6.85;;
18720;SDS011;9489;50.948;3.114;2023-10-13T12:04:30;14.32;;;7.07;;
18720;SDS011;9489;50.948;3.114;2023-10-13T12:07:14;14.02;;;5.72;;
18720;SDS011;9489;50.948;3.114;2023-10-13T12:09:41;10.10;;;6.20;;
18720;SDS011;9489;50.948;3.114;2023-10-13T12:12:17;12.65;;;5.55;;
18720;SDS011;9489;50.948;3.114;2023-10-13T12:14:42;9.13;;;5.25;;
18720;SDS011;9489;50.948;3.114;2023-10-13T12:17:27;9.23;;;5.43;;
18720;SDS011;9489;50.948;3.114;2023-10-13T12:19:57;10.27;;;5.85;;
18720;SDS011;9489;50.948;3.114;2023-10-13T12:22:24;13.80;;;5.43;;
18720;SDS011;9489;50.948;3.114;2023-10-13T12:25:10;10.40;;;6.13;;
18720;SDS011;9489;50.948;3.114;2023-10-13T12:28:09;12.80;;;5.90;;
18720;SDS011;9489;50.948;3.114;2023-10-13T12:30:43;12.38;;;6.20;;
18720;SDS011;9489;50.948;3.114;2023-10-13T12:33:17;11.73;;;6.28;;
18720;SDS011;9489;50.948;3.114;2023-10-13T12:35:59;10.35;;;6.38;;
18720;SDS011;9489;50.948;3.114;2023-10-13T12:38:40;10.05;;;5.53;;
18720;SDS011;9489;50.948;3.114;2023-10-13T12:41:12;11.88;;;5.47;;
18720;SDS011;9489;50.948;3.114;2023-10-13T12:43:57;9.18;;;5.65;;
18720;SDS011;9489;50.948;3.114;2023-10-13T12:46:41;9.60;;;6.00;;
18720;SDS011;9489;50.948;3.114;2023-10-13T12:49:25;10.13;;;6.38;;
18720;SDS011;9489;50.948;3.114;2023-10-13T12:52:10;8.85;;;6.05;;
18720;SDS011;9489;50.948;3.114;2023-10-13T12:54:46;10.35;;;5.70;;
18720;SDS011;9489;50.948;3.114;2023-10-13T12:57:15;9.63;;;5.45;;
18720;SDS011;9489;50.948;3.114;2023-10-13T12:59:42;9.82;;;5.78;;
18720;SDS011;9489;50.948;3.114;2023-10-13T13:02:08;12.48;;;6.00;;
18720;SDS011;9489;50.948;3.114;2023-10-13T13:04:40;9.80;;;5.80;;
18720;SDS011;9489;50.948;3.114;2023-10-13T13:07:09;11.80;;;5.47;;
18720;SDS011;9489;50.948;3.114;2023-10-13T13:09:39;9.77;;;5.53;;
18720;SDS011;9489;50.948;3.114;2023-10-13T13:12:05;9.32;;;5.60;;
18720;SDS011;9489;50.948;3.114;2023-10-13T13:14:31;10.27;;;6.22;;
18720;SDS011;9489;50.948;3.114;2023-10-13T13:17:02;14.93;;;6.53;;
18720;SDS011;9489;50.948;3.114;2023-10-13T13:19:34;13.80;;;5.82;;
18720;SDS011;9489;50.948;3.114;2023-10-13T13:22:07;12.63;;;5.78;;
18720;SDS011;9489;50.948;3.114;2023-10-13T13:24:41;8.48;;;5.53;;
18720;SDS011;9489;50.948;3.114;2023-10-13T13:27:14;12.02;;;6.05;;
18720;SDS011;9489;50.948;3.114;2023-10-13T13:29:43;13.35;;;5.95;;
18720;SDS011;9489;50.948;3.114;2023-10-13T13:32:09;14.55;;;6.30;;
18720;SDS011;9489;50.948;3.114;2023-10-13T13:34:49;11.93;;;5.70;;
18720;SDS011;9489;50.948;3.114;2023-10-13T13:37:29;10.55;;;6.40;;
18720;SDS011;9489;50.948;3.114;2023-10-13T13:39:56;9.20;;;5.70;;
18720;SDS011;9489;50.948;3.114;2023-10-13T13:42:38;9.45;;;6.10;;
18720;SDS011;9489;50.948;3.114;2023-10-13T13:45:06;13.60;;;5.97;;
18720;SDS011;9489;50.948;3.114;2023-10-13T13:47:50;12.80;;;5.97;;
18720;SDS011;9489;50.948;3.114;2023-10-13T13:50:21;11.57;;;5.93;;
18720;SDS011;9489;50.948;3.114;2023-10-13T13:52:54;12.82;;;5.57;;
18720;SDS011;9489;50.948;3.114;2023-10-13T13:55:23;9.43;;;5.72;;
18720;SDS011;9489;50.948;3.114;2023-10-13T13:57:55;14.98;;;7.18;;
18720;SDS011;9489;50.948;3.114;2023-10-13T14:00:21;11.13;;;6.28;;
18720;SDS011;9489;50.948;3.114;2023-10-13T14:03:02;11.75;;;6.15;;
18720;SDS011;9489;50.948;3.114;2023-10-13T14:05:40;11.85;;;5.82;;
18720;SDS011;9489;50.948;3.114;2023-10-13T14:08:08;11.13;;;6.70;;
18720;SDS011;9489;50.948;3.114;2023-10-13T14:10:39;14.23;;;6.32;;
18720;SDS011;9489;50.948;3.114;2023-10-13T14:13:23;12.68;;;6.10;;
18720;SDS011;9489;50.948;3.114;2023-10-13T14:16:09;10.40;;;6.00;;
18720;SDS011;9489;50.948;3.114;2023-10-13T14:18:44;11.05;;;6.05;;
18720;SDS011;9489;50.948;3.114;2023-10-13T14:21:11;13.43;;;6.13;;
18720;SDS011;9489;50.948;3.114;2023-10-13T14:23:51;12.75;;;6.68;;
18720;SDS011;9489;50.948;3.114;2023-10-13T14:26:18;10.95;;;6.57;;
18720;SDS011;9489;50.948;3.114;2023-10-13T14:28:48;8.57;;;6.45;;
18720;SDS011;9489;50.948;3.114;2023-10-13T14:31:26;11.57;;;6.78;;
18720;SDS011;9489;50.948;3.114;2023-10-13T14:33:52;14.68;;;7.45;;
18720;SDS011;9489;50.948;3.114;2023-10-13T14:36:18;11.20;;;6.63;;
18720;SDS011;9489;50.948;3.114;2023-10-13T14:38:47;14.65;;;7.20;;
18720;SDS011;9489;50.948;3.114;2023-10-13T14:41:17;13.27;;;7.43;;
18720;SDS011;9489;50.948;3.114;2023-10-13T14:43:44;15.63;;;7.43;;
18720;SDS011;9489;50.948;3.114;2023-10-13T14:46:16;11.55;;;7.40;;
18720;SDS011;9489;50.948;3.114;2023-10-13T14:48:42;13.80;;;7.63;;
18720;SDS011;9489;50.948;3.114;2023-10-13T14:51:12;11.98;;;7.38;;
18720;SDS011;9489;50.948;3.114;2023-10-13T14:53:44;9.75;;;6.70;;
18720;SDS011;9489;50.948;3.114;2023-10-13T14:56:10;12.25;;;7.65;;
18720;SDS011;9489;50.948;3.114;2023-10-13T14:58:37;12.85;;;7.55;;
18720;SDS011;9489;50.948;3.114;2023-10-13T15:01:13;13.15;;;7.50;;
18720;SDS011;9489;50.948;3.114;2023-10-13T15:06:18;13.63;;;7.65;;
18720;SDS011;9489;50.948;3.114;2023-10-13T15:08:51;12.85;;;7.07;;
18720;SDS011;9489;50.948;3.114;2023-10-13T15:11:20;13.20;;;7.60;;
18720;SDS011;9489;50.948;3.114;2023-10-13T15:13:46;15.40;;;7.82;;
18720;SDS011;9489;50.948;3.114;2023-10-13T15:16:17;11.55;;;7.07;;
18720;SDS011;9489;50.948;3.114;2023-10-13T15:18:49;11.48;;;7.78;;
18720;SDS011;9489;50.948;3.114;2023-10-13T15:21:19;11.32;;;7.40;;
18720;SDS011;9489;50.948;3.114;2023-10-13T15:23:51;12.52;;;6.65;;
18720;SDS011;9489;50.948;3.114;2023-10-13T15:26:20;12.90;;;7.00;;
18720;SDS011;9489;50.948;3.114;2023-10-13T15:28:48;13.10;;;6.47;;
18720;SDS011;9489;50.948;3.114;2023-10-13T15:31:15;12.32;;;7.40;;
18720;SDS011;9489;50.948;3.114;2023-10-13T15:33:59;14.07;;;6.80;;
18720;SDS011;9489;50.948;3.114;2023-10-13T15:36:31;12.85;;;6.90;;
18720;SDS011;9489;50.948;3.114;2023-10-13T15:38:59;10.48;;;6.57;;
18720;SDS011;9489;50.948;3.114;2023-10-13T15:41:26;10.23;;;6.85;;
18720;SDS011;9489;50.948;3.114;2023-10-13T15:43:53;12.23;;;7.32;;
18720;SDS011;9489;50.948;3.114;2023-10-13T15:46:20;12.23;;;6.65;;